Turocak, Russia
Current Conditions -  °F | °C
As of 7:30 PM on Monday 26 Jan 2015 (Local Time) from UNBB Reporting Station
Clear Clear  
Wind Chill: -33°   Ceiling: Unl
Heat Index: -20°   Visibility: 6mi
Dew Point: -27°   Wind: 4mph
Humidity: 69%   Direction: 190°S
Pressure: 30.8"   Gusts: NA
Location:  52.27°N, 87.17°E
Report Text: UNBB 261230Z 19002MPS CAVOK M29/M33 Q1043 NOSIG RMK QFE760/101324400560
Loading
Personal Weather Stations






























Interactive Weather Map New forecast layout! Learn more

10-Day Weather Forecast

Advertisements
Track Severe Weather on mobile